createdAt,value
2022-09-30T00:03:41.624Z,88.06
2022-09-30T00:18:42.291Z,88.62
2022-09-30T00:33:42.363Z,88.83
2022-09-30T00:48:42.485Z,88.66
2022-09-30T01:03:42.593Z,87.83
2022-09-30T01:18:42.703Z,88.18
2022-09-30T01:33:42.842Z,87.66
2022-09-30T01:48:42.917Z,87.63
2022-09-30T02:03:43.067Z,87.81
2022-09-30T02:18:43.141Z,86.55
2022-09-30T02:33:43.821Z,86.80
2022-09-30T02:48:43.900Z,85.76
2022-09-30T03:03:44.030Z,85.69
2022-09-30T03:18:44.115Z,86.11
2022-09-30T03:33:44.282Z,85.94
2022-09-30T03:48:44.375Z,86.25
2022-09-30T04:03:44.497Z,85.42
2022-09-30T04:18:44.580Z,85.35
2022-09-30T04:33:44.672Z,84.52
2022-09-30T04:48:44.789Z,84.27
2022-09-30T05:03:44.889Z,84.94
2022-09-30T05:18:44.995Z,84.48
2022-09-30T05:33:45.149Z,83.85
2022-09-30T05:48:45.309Z,83.85
2022-09-30T06:03:46.326Z,84.88
2022-09-30T06:18:46.458Z,92.24
2022-09-30T06:33:47.843Z,89.42
2022-09-30T06:48:47.967Z,89.69
2022-09-30T07:03:51.482Z,82.02
2022-09-30T07:18:53.164Z,79.84
2022-09-30T07:33:53.341Z,95.79
2022-09-30T07:48:53.448Z,99.99
2022-09-30T08:03:53.537Z,99.99
2022-09-30T08:18:53.705Z,99.99
2022-09-30T08:33:53.787Z,95.40
2022-09-30T08:48:53.917Z,90.02
2022-09-30T09:03:53.968Z,81.68
2022-09-30T09:18:54.123Z,75.47
2022-09-30T09:33:54.206Z,74.02
2022-09-30T09:48:54.297Z,70.83
2022-09-30T10:03:54.590Z,66.84
2022-09-30T10:18:54.720Z,64.90
2022-09-30T10:33:54.608Z,64.11
2022-09-30T10:48:54.730Z,60.97
2022-09-30T11:03:54.989Z,59.16
2022-09-30T11:18:55.056Z,58.13
2022-09-30T11:33:55.034Z,58.63
2022-09-30T11:48:55.155Z,60.06
2022-09-30T12:03:55.408Z,58.73
2022-09-30T12:18:55.586Z,57.23
2022-09-30T12:33:55.662Z,60.28
2022-09-30T12:48:55.801Z,56.76
2022-09-30T13:03:55.890Z,55.45
2022-09-30T13:18:55.986Z,55.90
2022-09-30T13:33:56.054Z,54.10
2022-09-30T13:48:56.157Z,53.37
2022-09-30T14:03:56.341Z,54.24
2022-09-30T14:18:56.443Z,52.04
2022-09-30T14:33:56.444Z,52.92
2022-09-30T14:48:56.587Z,52.92
2022-09-30T15:03:56.621Z,54.52
2022-09-30T15:18:56.757Z,58.07
2022-09-30T15:33:56.804Z,59.79
2022-09-30T15:48:56.905Z,61.92
2022-09-30T16:03:57.022Z,64.16
2022-09-30T16:18:57.197Z,70.69
2022-09-30T16:33:57.221Z,76.14
2022-09-30T16:48:57.302Z,83.42
2022-09-30T17:03:57.404Z,85.72
2022-09-30T17:18:57.539Z,87.51
2022-09-30T17:33:57.574Z,91.52
2022-09-30T17:48:57.713Z,96.59
2022-09-30T18:03:57.807Z,99.03
2022-09-30T18:18:58.007Z,99.99
2022-09-30T18:33:58.009Z,99.99
2022-09-30T18:48:58.216Z,99.99
2022-09-30T19:03:58.301Z,99.99
2022-09-30T19:18:58.454Z,99.99
2022-09-30T19:34:00.684Z,99.99
2022-09-30T19:49:00.904Z,99.88
2022-09-30T20:04:00.963Z,97.61
2022-09-30T20:19:02.566Z,96.67
2022-09-30T20:34:02.521Z,95.57
2022-09-30T20:49:02.618Z,94.18
2022-09-30T21:04:02.701Z,91.74
2022-09-30T21:19:02.856Z,91.99
2022-09-30T21:34:03.028Z,92.13
2022-09-30T21:49:03.197Z,90.41
2022-09-30T22:04:03.738Z,89.11
2022-09-30T22:19:04.031Z,87.14
2022-09-30T22:34:03.939Z,85.17
2022-09-30T22:49:04.098Z,83.10
2022-09-30T23:04:04.360Z,82.17
2022-09-30T23:19:04.432Z,81.75
2022-09-30T23:34:04.506Z,82.72
2022-09-30T23:49:05.136Z,82.97
